sensor_id;sensor_type;location;lat;lon;timestamp;P1;durP1;ratioP1;P2;durP2;ratioP2
50789;SDS011;37287;47.554;7.844;2023-12-20T00:02:10;4.63;;;3.90;;
50789;SDS011;37287;47.554;7.844;2023-12-20T00:04:37;4.88;;;4.30;;
50789;SDS011;37287;47.554;7.844;2023-12-20T00:07:03;5.05;;;4.28;;
50789;SDS011;37287;47.554;7.844;2023-12-20T00:09:30;4.35;;;3.90;;
50789;SDS011;37287;47.554;7.844;2023-12-20T00:11:57;6.20;;;4.10;;
50789;SDS011;37287;47.554;7.844;2023-12-20T00:14:24;4.40;;;4.00;;
50789;SDS011;37287;47.554;7.844;2023-12-20T00:16:50;4.80;;;4.00;;
50789;SDS011;37287;47.554;7.844;2023-12-20T00:19:17;4.70;;;3.70;;
50789;SDS011;37287;47.554;7.844;2023-12-20T00:21:44;4.68;;;3.80;;
50789;SDS011;37287;47.554;7.844;2023-12-20T00:24:11;4.80;;;3.90;;
50789;SDS011;37287;47.554;7.844;2023-12-20T00:26:37;4.38;;;3.60;;
50789;SDS011;37287;47.554;7.844;2023-12-20T00:29:04;4.85;;;4.35;;
50789;SDS011;37287;47.554;7.844;2023-12-20T00:31:31;4.10;;;3.67;;
50789;SDS011;37287;47.554;7.844;2023-12-20T00:33:58;5.13;;;3.92;;
50789;SDS011;37287;47.554;7.844;2023-12-20T00:36:24;5.15;;;4.07;;
50789;SDS011;37287;47.554;7.844;2023-12-20T00:38:51;3.65;;;3.25;;
50789;SDS011;37287;47.554;7.844;2023-12-20T00:41:19;4.22;;;3.47;;
50789;SDS011;37287;47.554;7.844;2023-12-20T00:43:45;4.68;;;3.50;;
50789;SDS011;37287;47.554;7.844;2023-12-20T00:46:12;3.83;;;3.33;;
50789;SDS011;37287;47.554;7.844;2023-12-20T00:48:39;5.05;;;3.50;;
50789;SDS011;37287;47.554;7.844;2023-12-20T00:51:08;3.60;;;3.30;;
50789;SDS011;37287;47.554;7.844;2023-12-20T00:53:35;4.45;;;3.63;;
50789;SDS011;37287;47.554;7.844;2023-12-20T00:56:02;4.18;;;3.70;;
50789;SDS011;37287;47.554;7.844;2023-12-20T00:58:29;4.00;;;3.55;;
50789;SDS011;37287;47.554;7.844;2023-12-20T01:00:56;4.30;;;3.45;;
50789;SDS011;37287;47.554;7.844;2023-12-20T01:03:24;4.78;;;3.60;;
50789;SDS011;37287;47.554;7.844;2023-12-20T01:05:51;3.33;;;3.03;;
50789;SDS011;37287;47.554;7.844;2023-12-20T01:08:18;4.03;;;3.15;;
50789;SDS011;37287;47.554;7.844;2023-12-20T01:10:45;3.22;;;2.92;;
50789;SDS011;37287;47.554;7.844;2023-12-20T01:13:13;3.92;;;3.30;;
50789;SDS011;37287;47.554;7.844;2023-12-20T01:15:40;3.58;;;3.10;;
50789;SDS011;37287;47.554;7.844;2023-12-20T01:18:07;3.65;;;3.13;;
50789;SDS011;37287;47.554;7.844;2023-12-20T01:20:35;3.83;;;2.90;;
50789;SDS011;37287;47.554;7.844;2023-12-20T01:23:02;3.42;;;2.95;;
50789;SDS011;37287;47.554;7.844;2023-12-20T01:25:29;3.05;;;2.75;;
50789;SDS011;37287;47.554;7.844;2023-12-20T01:27:56;3.72;;;3.10;;
50789;SDS011;37287;47.554;7.844;2023-12-20T01:30:23;3.25;;;2.85;;
50789;SDS011;37287;47.554;7.844;2023-12-20T01:32:50;3.40;;;2.72;;
50789;SDS011;37287;47.554;7.844;2023-12-20T01:35:17;3.20;;;2.80;;
50789;SDS011;37287;47.554;7.844;2023-12-20T01:37:45;3.50;;;2.78;;
50789;SDS011;37287;47.554;7.844;2023-12-20T01:40:12;3.30;;;2.90;;
50789;SDS011;37287;47.554;7.844;2023-12-20T01:42:39;3.13;;;2.60;;
50789;SDS011;37287;47.554;7.844;2023-12-20T01:45:06;2.50;;;2.30;;
50789;SDS011;37287;47.554;7.844;2023-12-20T01:47:33;2.50;;;2.30;;
50789;SDS011;37287;47.554;7.844;2023-12-20T01:50:00;2.88;;;2.60;;
50789;SDS011;37287;47.554;7.844;2023-12-20T01:52:30;3.40;;;2.97;;
50789;SDS011;37287;47.554;7.844;2023-12-20T01:54:57;2.83;;;2.53;;
50789;SDS011;37287;47.554;7.844;2023-12-20T01:57:29;3.75;;;3.20;;
50789;SDS011;37287;47.554;7.844;2023-12-20T01:59:56;5.00;;;3.22;;
50789;SDS011;37287;47.554;7.844;2023-12-20T02:02:23;4.55;;;3.75;;
50789;SDS011;37287;47.554;7.844;2023-12-20T02:04:50;4.35;;;3.95;;
50789;SDS011;37287;47.554;7.844;2023-12-20T02:07:18;5.93;;;4.68;;
50789;SDS011;37287;47.554;7.844;2023-12-20T02:09:45;7.20;;;4.80;;
50789;SDS011;37287;47.554;7.844;2023-12-20T02:12:12;6.03;;;5.20;;
50789;SDS011;37287;47.554;7.844;2023-12-20T02:14:39;8.05;;;5.13;;
50789;SDS011;37287;47.554;7.844;2023-12-20T02:17:05;6.90;;;5.88;;
50789;SDS011;37287;47.554;7.844;2023-12-20T02:19:32;7.05;;;5.78;;
50789;SDS011;37287;47.554;7.844;2023-12-20T02:22:06;7.20;;;6.18;;
50789;SDS011;37287;47.554;7.844;2023-12-20T02:24:34;9.10;;;6.10;;
50789;SDS011;37287;47.554;7.844;2023-12-20T02:27:01;6.78;;;5.63;;
50789;SDS011;37287;47.554;7.844;2023-12-20T02:29:28;7.40;;;6.03;;
50789;SDS011;37287;47.554;7.844;2023-12-20T02:31:54;6.90;;;5.32;;
50789;SDS011;37287;47.554;7.844;2023-12-20T02:34:21;6.53;;;5.20;;
50789;SDS011;37287;47.554;7.844;2023-12-20T02:36:48;6.28;;;4.93;;
50789;SDS011;37287;47.554;7.844;2023-12-20T02:39:15;5.70;;;4.45;;
50789;SDS011;37287;47.554;7.844;2023-12-20T02:41:42;5.35;;;4.40;;
50789;SDS011;37287;47.554;7.844;2023-12-20T02:44:08;5.50;;;4.20;;
50789;SDS011;37287;47.554;7.844;2023-12-20T02:46:35;5.13;;;4.30;;
50789;SDS011;37287;47.554;7.844;2023-12-20T02:49:02;5.45;;;4.43;;
50789;SDS011;37287;47.554;7.844;2023-12-20T02:51:29;4.95;;;4.10;;
50789;SDS011;37287;47.554;7.844;2023-12-20T02:53:55;4.25;;;3.83;;
50789;SDS011;37287;47.554;7.844;2023-12-20T02:56:22;4.22;;;3.83;;
50789;SDS011;37287;47.554;7.844;2023-12-20T02:58:49;4.65;;;3.67;;
50789;SDS011;37287;47.554;7.844;2023-12-20T03:01:15;5.18;;;3.70;;
50789;SDS011;37287;47.554;7.844;2023-12-20T03:03:42;4.30;;;3.58;;
50789;SDS011;37287;47.554;7.844;2023-12-20T03:06:09;4.32;;;3.92;;
50789;SDS011;37287;47.554;7.844;2023-12-20T03:08:36;5.63;;;4.20;;
50789;SDS011;37287;47.554;7.844;2023-12-20T03:11:03;6.90;;;4.07;;
50789;SDS011;37287;47.554;7.844;2023-12-20T03:13:30;4.57;;;3.70;;
50789;SDS011;37287;47.554;7.844;2023-12-20T03:15:56;4.55;;;3.72;;
50789;SDS011;37287;47.554;7.844;2023-12-20T03:18:23;4.20;;;3.72;;
50789;SDS011;37287;47.554;7.844;2023-12-20T03:20:50;4.22;;;3.83;;
50789;SDS011;37287;47.554;7.844;2023-12-20T03:23:17;3.88;;;3.47;;
50789;SDS011;37287;47.554;7.844;2023-12-20T03:25:44;5.90;;;3.60;;
50789;SDS011;37287;47.554;7.844;2023-12-20T03:28:10;4.63;;;3.45;;
50789;SDS011;37287;47.554;7.844;2023-12-20T03:30:37;5.20;;;3.78;;
50789;SDS011;37287;47.554;7.844;2023-12-20T03:33:04;5.28;;;4.15;;
50789;SDS011;37287;47.554;7.844;2023-12-20T03:35:31;4.40;;;3.72;;
50789;SDS011;37287;47.554;7.844;2023-12-20T03:37:57;5.93;;;4.32;;
50789;SDS011;37287;47.554;7.844;2023-12-20T03:40:26;4.97;;;3.83;;
50789;SDS011;37287;47.554;7.844;2023-12-20T03:42:53;3.55;;;3.25;;
50789;SDS011;37287;47.554;7.844;2023-12-20T03:45:19;4.40;;;3.67;;
50789;SDS011;37287;47.554;7.844;2023-12-20T03:47:46;4.00;;;3.60;;
50789;SDS011;37287;47.554;7.844;2023-12-20T03:50:15;4.35;;;3.95;;
50789;SDS011;37287;47.554;7.844;2023-12-20T03:52:41;3.58;;;3.28;;
50789;SDS011;37287;47.554;7.844;2023-12-20T03:55:08;6.22;;;3.22;;
50789;SDS011;37287;47.554;7.844;2023-12-20T03:57:35;4.95;;;3.53;;
50789;SDS011;37287;47.554;7.844;2023-12-20T06:02:43;5.85;;;5.07;;
50789;SDS011;37287;47.554;7.844;2023-12-20T06:05:10;7.78;;;5.28;;
50789;SDS011;37287;47.554;7.844;2023-12-20T06:07:37;9.00;;;6.32;;
50789;SDS011;37287;47.554;7.844;2023-12-20T06:10:04;8.27;;;6.07;;
50789;SDS011;37287;47.554;7.844;2023-12-20T06:12:32;7.60;;;5.72;;
50789;SDS011;37287;47.554;7.844;2023-12-20T06:15:02;8.07;;;6.00;;
50789;SDS011;37287;47.554;7.844;2023-12-20T06:17:29;7.90;;;6.15;;
50789;SDS011;37287;47.554;7.844;2023-12-20T06:19:57;7.82;;;5.50;;
50789;SDS011;37287;47.554;7.844;2023-12-20T06:22:24;12.02;;;6.53;;
50789;SDS011;37287;47.554;7.844;2023-12-20T06:24:51;11.82;;;6.05;;
50789;SDS011;37287;47.554;7.844;2023-12-20T06:27:18;8.20;;;5.95;;
50789;SDS011;37287;47.554;7.844;2023-12-20T06:29:45;9.07;;;6.32;;
50789;SDS011;37287;47.554;7.844;2023-12-20T06:32:12;9.27;;;6.50;;
50789;SDS011;37287;47.554;7.844;2023-12-20T06:34:38;11.75;;;7.70;;
50789;SDS011;37287;47.554;7.844;2023-12-20T06:37:05;11.52;;;7.43;;
50789;SDS011;37287;47.554;7.844;2023-12-20T06:39:32;12.38;;;8.43;;
50789;SDS011;37287;47.554;7.844;2023-12-20T06:42:00;12.80;;;7.35;;
50789;SDS011;37287;47.554;7.844;2023-12-20T06:44:26;13.23;;;7.43;;
50789;SDS011;37287;47.554;7.844;2023-12-20T06:46:53;9.82;;;6.90;;
50789;SDS011;37287;47.554;7.844;2023-12-20T06:49:20;10.75;;;6.82;;
50789;SDS011;37287;47.554;7.844;2023-12-20T06:51:47;7.20;;;5.85;;
50789;SDS011;37287;47.554;7.844;2023-12-20T06:54:14;8.32;;;6.30;;
50789;SDS011;37287;47.554;7.844;2023-12-20T06:56:40;8.80;;;6.35;;
50789;SDS011;37287;47.554;7.844;2023-12-20T06:59:07;8.50;;;5.88;;
50789;SDS011;37287;47.554;7.844;2023-12-20T07:01:34;8.90;;;6.20;;
50789;SDS011;37287;47.554;7.844;2023-12-20T07:04:01;9.27;;;6.10;;
50789;SDS011;37287;47.554;7.844;2023-12-20T07:06:27;9.00;;;6.30;;
50789;SDS011;37287;47.554;7.844;2023-12-20T07:08:54;11.63;;;6.18;;
50789;SDS011;37287;47.554;7.844;2023-12-20T07:11:21;10.38;;;6.28;;
50789;SDS011;37287;47.554;7.844;2023-12-20T07:13:48;11.05;;;5.88;;
50789;SDS011;37287;47.554;7.844;2023-12-20T07:16:16;9.93;;;6.18;;
50789;SDS011;37287;47.554;7.844;2023-12-20T07:18:42;7.00;;;5.43;;
50789;SDS011;37287;47.554;7.844;2023-12-20T07:21:09;6.28;;;5.00;;
50789;SDS011;37287;47.554;7.844;2023-12-20T07:23:36;7.38;;;6.05;;
50789;SDS011;37287;47.554;7.844;2023-12-20T07:26:03;7.15;;;5.03;;
50789;SDS011;37287;47.554;7.844;2023-12-20T07:28:30;7.22;;;4.78;;
50789;SDS011;37287;47.554;7.844;2023-12-20T07:30:57;8.93;;;5.63;;
50789;SDS011;37287;47.554;7.844;2023-12-20T07:33:24;7.18;;;5.18;;
50789;SDS011;37287;47.554;7.844;2023-12-20T07:35:51;7.32;;;5.30;;
50789;SDS011;37287;47.554;7.844;2023-12-20T07:38:18;6.97;;;4.90;;
50789;SDS011;37287;47.554;7.844;2023-12-20T07:40:45;5.57;;;4.70;;
50789;SDS011;37287;47.554;7.844;2023-12-20T07:43:12;4.95;;;4.30;;
50789;SDS011;37287;47.554;7.844;2023-12-20T07:45:39;4.85;;;4.15;;
50789;SDS011;37287;47.554;7.844;2023-12-20T07:48:06;5.75;;;4.28;;
50789;SDS011;37287;47.554;7.844;2023-12-20T07:50:33;7.18;;;4.18;;
50789;SDS011;37287;47.554;7.844;2023-12-20T07:53:00;5.00;;;4.00;;
50789;SDS011;37287;47.554;7.844;2023-12-20T07:55:27;6.57;;;4.40;;
50789;SDS011;37287;47.554;7.844;2023-12-20T07:57:54;7.03;;;4.18;;
50789;SDS011;37287;47.554;7.844;2023-12-20T08:00:21;6.57;;;3.97;;
50789;SDS011;37287;47.554;7.844;2023-12-20T08:02:47;5.75;;;3.90;;
50789;SDS011;37287;47.554;7.844;2023-12-20T08:05:14;6.07;;;4.15;;
50789;SDS011;37287;47.554;7.844;2023-12-20T08:07:43;5.93;;;3.33;;
50789;SDS011;37287;47.554;7.844;2023-12-20T08:10:10;5.20;;;3.50;;
50789;SDS011;37287;47.554;7.844;2023-12-20T08:12:37;4.13;;;3.00;;
50789;SDS011;37287;47.554;7.844;2023-12-20T08:15:06;3.97;;;3.40;;
50789;SDS011;37287;47.554;7.844;2023-12-20T08:17:33;5.18;;;3.67;;
50789;SDS011;37287;47.554;7.844;2023-12-20T08:19:59;5.78;;;3.53;;
50789;SDS011;37287;47.554;7.844;2023-12-20T08:22:26;3.92;;;3.03;;
50789;SDS011;37287;47.554;7.844;2023-12-20T08:24:53;5.35;;;3.20;;
50789;SDS011;37287;47.554;7.844;2023-12-20T08:27:20;6.43;;;3.00;;
50789;SDS011;37287;47.554;7.844;2023-12-20T08:29:46;3.28;;;2.92;;
50789;SDS011;37287;47.554;7.844;2023-12-20T08:32:14;2.97;;;2.47;;
50789;SDS011;37287;47.554;7.844;2023-12-20T08:34:40;3.72;;;3.05;;
50789;SDS011;37287;47.554;7.844;2023-12-20T08:37:07;3.70;;;2.97;;
50789;SDS011;37287;47.554;7.844;2023-12-20T08:39:34;3.65;;;2.97;;
50789;SDS011;37287;47.554;7.844;2023-12-20T08:42:01;5.10;;;3.08;;
50789;SDS011;37287;47.554;7.844;2023-12-20T08:44:28;2.88;;;2.58;;
50789;SDS011;37287;47.554;7.844;2023-12-20T08:46:57;4.95;;;3.28;;
50789;SDS011;37287;47.554;7.844;2023-12-20T08:49:23;3.92;;;3.33;;
50789;SDS011;37287;47.554;7.844;2023-12-20T08:51:52;5.20;;;3.40;;
50789;SDS011;37287;47.554;7.844;2023-12-20T08:54:19;5.15;;;3.65;;
50789;SDS011;37287;47.554;7.844;2023-12-20T08:56:45;5.13;;;3.17;;
50789;SDS011;37287;47.554;7.844;2023-12-20T08:59:12;5.30;;;3.47;;
50789;SDS011;37287;47.554;7.844;2023-12-20T09:01:39;4.30;;;2.92;;
50789;SDS011;37287;47.554;7.844;2023-12-20T09:04:06;3.63;;;3.20;;
50789;SDS011;37287;47.554;7.844;2023-12-20T09:06:33;3.42;;;3.10;;
50789;SDS011;37287;47.554;7.844;2023-12-20T09:08:59;3.92;;;3.22;;
50789;SDS011;37287;47.554;7.844;2023-12-20T09:11:26;3.55;;;2.70;;
50789;SDS011;37287;47.554;7.844;2023-12-20T09:13:53;3.17;;;2.88;;
50789;SDS011;37287;47.554;7.844;2023-12-20T09:16:20;3.42;;;2.95;;
50789;SDS011;37287;47.554;7.844;2023-12-20T09:18:47;4.60;;;3.00;;
50789;SDS011;37287;47.554;7.844;2023-12-20T09:21:14;4.05;;;3.10;;
50789;SDS011;37287;47.554;7.844;2023-12-20T09:23:40;2.95;;;2.67;;
50789;SDS011;37287;47.554;7.844;2023-12-20T09:26:07;4.97;;;3.33;;
50789;SDS011;37287;47.554;7.844;2023-12-20T09:28:34;3.90;;;3.50;;
50789;SDS011;37287;47.554;7.844;2023-12-20T09:31:04;3.95;;;2.67;;
50789;SDS011;37287;47.554;7.844;2023-12-20T09:33:31;3.53;;;3.22;;
50789;SDS011;37287;47.554;7.844;2023-12-20T09:35:59;4.53;;;3.15;;
50789;SDS011;37287;47.554;7.844;2023-12-20T09:38:26;3.65;;;3.35;;
50789;SDS011;37287;47.554;7.844;2023-12-20T09:40:53;6.22;;;3.13;;
50789;SDS011;37287;47.554;7.844;2023-12-20T09:43:21;4.30;;;3.40;;
50789;SDS011;37287;47.554;7.844;2023-12-20T09:45:50;3.83;;;3.40;;
50789;SDS011;37287;47.554;7.844;2023-12-20T09:48:19;3.05;;;2.85;;
50789;SDS011;37287;47.554;7.844;2023-12-20T09:50:47;3.60;;;3.30;;
50789;SDS011;37287;47.554;7.844;2023-12-20T09:53:19;3.53;;;3.22;;
50789;SDS011;37287;47.554;7.844;2023-12-20T09:55:46;3.30;;;3.00;;
50789;SDS011;37287;47.554;7.844;2023-12-20T09:58:13;3.30;;;3.00;;
50789;SDS011;37287;47.554;7.844;2023-12-20T10:00:40;3.72;;;3.25;;
50789;SDS011;37287;47.554;7.844;2023-12-20T10:03:06;5.88;;;3.53;;
50789;SDS011;37287;47.554;7.844;2023-12-20T10:05:35;4.50;;;2.92;;
50789;SDS011;37287;47.554;7.844;2023-12-20T10:08:02;3.50;;;3.20;;
50789;SDS011;37287;47.554;7.844;2023-12-20T10:10:30;3.30;;;3.00;;
50789;SDS011;37287;47.554;7.844;2023-12-20T10:13:10;3.80;;;3.10;;
50789;SDS011;37287;47.554;7.844;2023-12-20T10:15:39;2.92;;;2.63;;
50789;SDS011;37287;47.554;7.844;2023-12-20T10:18:08;3.13;;;2.83;;
50789;SDS011;37287;47.554;7.844;2023-12-20T10:20:35;3.10;;;2.80;;
50789;SDS011;37287;47.554;7.844;2023-12-20T10:23:03;2.85;;;2.55;;
50789;SDS011;37287;47.554;7.844;2023-12-20T10:25:30;2.78;;;2.58;;
50789;SDS011;37287;47.554;7.844;2023-12-20T10:28:14;4.35;;;2.40;;
50789;SDS011;37287;47.554;7.844;2023-12-20T10:30:46;2.50;;;2.30;;
50789;SDS011;37287;47.554;7.844;2023-12-20T10:33:13;2.38;;;2.17;;
50789;SDS011;37287;47.554;7.844;2023-12-20T10:35:51;2.92;;;2.53;;
50789;SDS011;37287;47.554;7.844;2023-12-20T10:38:19;4.45;;;2.38;;
50789;SDS011;37287;47.554;7.844;2023-12-20T10:40:46;4.78;;;2.45;;
50789;SDS011;37287;47.554;7.844;2023-12-20T10:43:13;3.47;;;2.50;;
50789;SDS011;37287;47.554;7.844;2023-12-20T10:45:42;3.28;;;1.90;;
50789;SDS011;37287;47.554;7.844;2023-12-20T10:48:12;3.95;;;2.35;;
50789;SDS011;37287;47.554;7.844;2023-12-20T10:50:39;3.45;;;2.38;;
50789;SDS011;37287;47.554;7.844;2023-12-20T10:53:07;3.72;;;2.30;;
50789;SDS011;37287;47.554;7.844;2023-12-20T10:55:34;2.40;;;2.20;;
50789;SDS011;37287;47.554;7.844;2023-12-20T10:58:01;2.53;;;2.33;;
50789;SDS011;37287;47.554;7.844;2023-12-20T11:00:33;2.38;;;2.17;;
50789;SDS011;37287;47.554;7.844;2023-12-20T11:03:05;2.72;;;2.05;;
50789;SDS011;37287;47.554;7.844;2023-12-20T11:05:49;2.63;;;2.33;;
50789;SDS011;37287;47.554;7.844;2023-12-20T11:08:36;2.70;;;2.50;;
50789;SDS011;37287;47.554;7.844;2023-12-20T11:14:04;2.78;;;2.33;;
50789;SDS011;37287;47.554;7.844;2023-12-20T11:16:37;2.92;;;2.55;;
50789;SDS011;37287;47.554;7.844;2023-12-20T11:19:17;4.53;;;2.45;;
50789;SDS011;37287;47.554;7.844;2023-12-20T11:21:45;3.58;;;2.30;;
50789;SDS011;37287;47.554;7.844;2023-12-20T11:24:13;2.47;;;2.28;;
50789;SDS011;37287;47.554;7.844;2023-12-20T11:26:43;4.78;;;2.25;;
50789;SDS011;37287;47.554;7.844;2023-12-20T11:29:30;6.75;;;2.20;;
50789;SDS011;37287;47.554;7.844;2023-12-20T11:32:00;3.50;;;2.27;;
50789;SDS011;37287;47.554;7.844;2023-12-20T11:34:32;3.65;;;2.60;;
50789;SDS011;37287;47.554;7.844;2023-12-20T11:37:00;5.72;;;2.33;;
50789;SDS011;37287;47.554;7.844;2023-12-20T11:39:29;3.45;;;2.35;;
50789;SDS011;37287;47.554;7.844;2023-12-20T11:41:57;3.08;;;2.28;;
50789;SDS011;37287;47.554;7.844;2023-12-20T11:44:30;4.75;;;2.38;;
50789;SDS011;37287;47.554;7.844;2023-12-20T11:46:56;2.75;;;2.20;;
50789;SDS011;37287;47.554;7.844;2023-12-20T11:49:24;3.15;;;2.55;;
50789;SDS011;37287;47.554;7.844;2023-12-20T11:51:52;3.97;;;2.45;;
50789;SDS011;37287;47.554;7.844;2023-12-20T11:54:18;3.17;;;2.65;;
50789;SDS011;37287;47.554;7.844;2023-12-20T11:56:45;5.32;;;2.78;;
50789;SDS011;37287;47.554;7.844;2023-12-20T11:59:12;4.35;;;2.40;;
50789;SDS011;37287;47.554;7.844;2023-12-20T12:01:49;5.50;;;2.45;;
50789;SDS011;37287;47.554;7.844;2023-12-20T12:04:17;3.95;;;2.35;;
50789;SDS011;37287;47.554;7.844;2023-12-20T12:06:45;7.60;;;2.70;;
50789;SDS011;37287;47.554;7.844;2023-12-20T12:09:12;3.95;;;2.33;;
50789;SDS011;37287;47.554;7.844;2023-12-20T12:11:39;3.85;;;2.70;;
50789;SDS011;37287;47.554;7.844;2023-12-20T12:14:06;4.07;;;2.45;;
50789;SDS011;37287;47.554;7.844;2023-12-20T12:16:34;4.55;;;2.33;;
50789;SDS011;37287;47.554;7.844;2023-12-20T12:19:00;4.43;;;2.60;;
50789;SDS011;37287;47.554;7.844;2023-12-20T12:21:28;4.35;;;2.65;;
50789;SDS011;37287;47.554;7.844;2023-12-20T12:24:08;3.40;;;2.40;;
50789;SDS011;37287;47.554;7.844;2023-12-20T12:26:36;4.65;;;2.80;;
50789;SDS011;37287;47.554;7.844;2023-12-20T12:29:02;4.90;;;2.78;;
50789;SDS011;37287;47.554;7.844;2023-12-20T12:31:29;4.82;;;2.53;;
50789;SDS011;37287;47.554;7.844;2023-12-20T12:33:57;4.32;;;2.35;;
50789;SDS011;37287;47.554;7.844;2023-12-20T12:36:24;7.70;;;2.90;;
50789;SDS011;37287;47.554;7.844;2023-12-20T12:38:51;3.85;;;2.67;;
50789;SDS011;37287;47.554;7.844;2023-12-20T12:41:17;4.55;;;2.90;;
50789;SDS011;37287;47.554;7.844;2023-12-20T12:43:44;5.43;;;2.55;;
50789;SDS011;37287;47.554;7.844;2023-12-20T12:46:11;5.97;;;2.42;;
50789;SDS011;37287;47.554;7.844;2023-12-20T12:48:38;3.50;;;2.30;;
50789;SDS011;37287;47.554;7.844;2023-12-20T12:51:07;4.57;;;2.75;;
50789;SDS011;37287;47.554;7.844;2023-12-20T12:53:39;6.05;;;2.28;;
50789;SDS011;37287;47.554;7.844;2023-12-20T12:56:06;7.00;;;2.47;;
50789;SDS011;37287;47.554;7.844;2023-12-20T12:58:34;4.03;;;2.08;;
50789;SDS011;37287;47.554;7.844;2023-12-20T13:01:01;4.57;;;2.42;;
50789;SDS011;37287;47.554;7.844;2023-12-20T13:03:28;5.80;;;2.25;;
50789;SDS011;37287;47.554;7.844;2023-12-20T13:05:55;7.05;;;2.35;;
50789;SDS011;37287;47.554;7.844;2023-12-20T13:08:22;3.08;;;1.70;;
50789;SDS011;37287;47.554;7.844;2023-12-20T13:10:48;6.38;;;2.05;;
50789;SDS011;37287;47.554;7.844;2023-12-20T13:13:15;7.07;;;1.88;;
50789;SDS011;37287;47.554;7.844;2023-12-20T13:15:43;21.60;;;2.05;;
50789;SDS011;37287;47.554;7.844;2023-12-20T13:18:17;5.07;;;2.03;;
50789;SDS011;37287;47.554;7.844;2023-12-20T13:20:45;6.03;;;2.42;;
50789;SDS011;37287;47.554;7.844;2023-12-20T13:23:12;3.97;;;1.60;;
50789;SDS011;37287;47.554;7.844;2023-12-20T13:25:39;4.65;;;1.58;;
50789;SDS011;37287;47.554;7.844;2023-12-20T13:28:06;5.07;;;1.73;;
50789;SDS011;37287;47.554;7.844;2023-12-20T13:30:33;8.13;;;1.98;;
50789;SDS011;37287;47.554;7.844;2023-12-20T13:33:00;6.05;;;1.70;;
50789;SDS011;37287;47.554;7.844;2023-12-20T13:35:27;4.57;;;1.98;;
50789;SDS011;37287;47.554;7.844;2023-12-20T13:37:54;5.28;;;1.52;;
50789;SDS011;37287;47.554;7.844;2023-12-20T13:40:22;5.97;;;1.70;;
50789;SDS011;37287;47.554;7.844;2023-12-20T13:42:49;5.75;;;1.50;;
50789;SDS011;37287;47.554;7.844;2023-12-20T13:45:16;3.67;;;1.80;;
50789;SDS011;37287;47.554;7.844;2023-12-20T13:47:43;8.60;;;1.77;;
50789;SDS011;37287;47.554;7.844;2023-12-20T13:50:11;3.90;;;1.63;;
50789;SDS011;37287;47.554;7.844;2023-12-20T13:52:38;6.95;;;1.48;;
50789;SDS011;37287;47.554;7.844;2023-12-20T13:55:05;10.48;;;1.63;;
50789;SDS011;37287;47.554;7.844;2023-12-20T13:57:35;5.10;;;1.50;;
50789;SDS011;37287;47.554;7.844;2023-12-20T14:00:20;5.85;;;1.60;;
50789;SDS011;37287;47.554;7.844;2023-12-20T14:02:47;6.15;;;1.45;;
50789;SDS011;37287;47.554;7.844;2023-12-20T14:05:14;5.85;;;1.83;;
50789;SDS011;37287;47.554;7.844;2023-12-20T14:07:44;5.00;;;1.40;;
50789;SDS011;37287;47.554;7.844;2023-12-20T14:10:12;3.85;;;1.50;;
50789;SDS011;37287;47.554;7.844;2023-12-20T14:12:40;7.30;;;1.90;;
50789;SDS011;37287;47.554;7.844;2023-12-20T14:15:07;4.18;;;1.13;;
50789;SDS011;37287;47.554;7.844;2023-12-20T14:17:37;2.90;;;1.48;;
50789;SDS011;37287;47.554;7.844;2023-12-20T14:20:08;4.97;;;1.50;;
50789;SDS011;37287;47.554;7.844;2023-12-20T14:22:35;4.30;;;1.40;;
50789;SDS011;37287;47.554;7.844;2023-12-20T14:25:03;5.82;;;1.15;;
50789;SDS011;37287;47.554;7.844;2023-12-20T14:27:30;3.22;;;1.20;;
50789;SDS011;37287;47.554;7.844;2023-12-20T14:29:59;5.40;;;1.20;;
50789;SDS011;37287;47.554;7.844;2023-12-20T14:32:26;5.05;;;1.42;;
50789;SDS011;37287;47.554;7.844;2023-12-20T14:34:55;6.47;;;1.63;;
50789;SDS011;37287;47.554;7.844;2023-12-20T14:37:22;5.88;;;1.65;;
50789;SDS011;37287;47.554;7.844;2023-12-20T14:39:49;6.43;;;1.50;;
50789;SDS011;37287;47.554;7.844;2023-12-20T14:42:16;5.40;;;1.52;;
50789;SDS011;37287;47.554;7.844;2023-12-20T14:44:43;5.43;;;1.50;;
50789;SDS011;37287;47.554;7.844;2023-12-20T14:47:09;7.40;;;1.55;;
50789;SDS011;37287;47.554;7.844;2023-12-20T14:49:36;4.32;;;1.50;;
50789;SDS011;37287;47.554;7.844;2023-12-20T14:52:04;4.13;;;1.30;;
50789;SDS011;37287;47.554;7.844;2023-12-20T14:54:31;6.80;;;1.77;;
50789;SDS011;37287;47.554;7.844;2023-12-20T14:56:59;5.68;;;1.65;;
50789;SDS011;37287;47.554;7.844;2023-12-20T14:59:31;5.95;;;1.60;;
50789;SDS011;37287;47.554;7.844;2023-12-20T15:01:57;5.90;;;1.75;;
50789;SDS011;37287;47.554;7.844;2023-12-20T15:04:25;7.32;;;1.80;;
50789;SDS011;37287;47.554;7.844;2023-12-20T15:06:55;3.42;;;1.40;;
50789;SDS011;37287;47.554;7.844;2023-12-20T15:09:22;4.18;;;1.30;;
50789;SDS011;37287;47.554;7.844;2023-12-20T15:11:49;4.93;;;1.90;;
50789;SDS011;37287;47.554;7.844;2023-12-20T15:14:16;6.75;;;1.98;;
50789;SDS011;37287;47.554;7.844;2023-12-20T15:16:46;7.50;;;1.25;;
50789;SDS011;37287;47.554;7.844;2023-12-20T15:19:15;4.15;;;1.35;;
50789;SDS011;37287;47.554;7.844;2023-12-20T15:21:43;5.35;;;1.75;;
50789;SDS011;37287;47.554;7.844;2023-12-20T15:24:13;6.75;;;1.52;;
50789;SDS011;37287;47.554;7.844;2023-12-20T15:26:46;2.85;;;1.27;;
50789;SDS011;37287;47.554;7.844;2023-12-20T15:29:13;2.58;;;1.40;;
50789;SDS011;37287;47.554;7.844;2023-12-20T15:31:42;2.47;;;1.02;;
50789;SDS011;37287;47.554;7.844;2023-12-20T15:34:09;2.47;;;1.10;;
50789;SDS011;37287;47.554;7.844;2023-12-20T15:36:37;2.97;;;1.30;;
50789;SDS011;37287;47.554;7.844;2023-12-20T15:39:05;1.88;;;0.98;;
50789;SDS011;37287;47.554;7.844;2023-12-20T15:41:35;2.60;;;1.20;;
50789;SDS011;37287;47.554;7.844;2023-12-20T15:44:02;2.97;;;1.23;;
50789;SDS011;37287;47.554;7.844;2023-12-20T15:46:29;4.63;;;1.23;;
50789;SDS011;37287;47.554;7.844;2023-12-20T15:48:55;2.53;;;1.02;;
50789;SDS011;37287;47.554;7.844;2023-12-20T15:51:23;3.38;;;1.73;;
50789;SDS011;37287;47.554;7.844;2023-12-20T15:53:50;3.33;;;1.40;;
50789;SDS011;37287;47.554;7.844;2023-12-20T15:56:17;3.15;;;1.20;;
50789;SDS011;37287;47.554;7.844;2023-12-20T15:58:45;6.03;;;1.35;;
50789;SDS011;37287;47.554;7.844;2023-12-20T16:01:15;2.05;;;1.17;;
50789;SDS011;37287;47.554;7.844;2023-12-20T16:03:41;4.47;;;1.60;;
50789;SDS011;37287;47.554;7.844;2023-12-20T16:06:19;1.60;;;1.10;;
50789;SDS011;37287;47.554;7.844;2023-12-20T16:08:47;2.78;;;1.38;;
50789;SDS011;37287;47.554;7.844;2023-12-20T16:11:15;3.72;;;1.58;;
50789;SDS011;37287;47.554;7.844;2023-12-20T16:13:42;2.30;;;1.30;;
50789;SDS011;37287;47.554;7.844;2023-12-20T16:16:08;2.70;;;1.20;;
50789;SDS011;37287;47.554;7.844;2023-12-20T16:18:36;5.85;;;1.30;;
50789;SDS011;37287;47.554;7.844;2023-12-20T16:21:03;2.13;;;1.40;;
50789;SDS011;37287;47.554;7.844;2023-12-20T16:23:30;5.57;;;1.33;;
50789;SDS011;37287;47.554;7.844;2023-12-20T16:25:57;4.25;;;1.20;;
50789;SDS011;37287;47.554;7.844;2023-12-20T16:28:24;2.33;;;1.40;;
50789;SDS011;37287;47.554;7.844;2023-12-20T16:30:51;5.65;;;1.40;;
50789;SDS011;37287;47.554;7.844;2023-12-20T16:33:18;4.53;;;1.40;;
50789;SDS011;37287;47.554;7.844;2023-12-20T16:35:44;4.43;;;1.30;;
50789;SDS011;37287;47.554;7.844;2023-12-20T16:38:11;1.30;;;1.05;;
50789;SDS011;37287;47.554;7.844;2023-12-20T16:40:38;3.33;;;1.38;;
50789;SDS011;37287;47.554;7.844;2023-12-20T16:43:05;3.78;;;1.55;;
50789;SDS011;37287;47.554;7.844;2023-12-20T16:45:31;2.80;;;1.58;;
50789;SDS011;37287;47.554;7.844;2023-12-20T16:47:58;2.88;;;1.67;;
50789;SDS011;37287;47.554;7.844;2023-12-20T16:50:25;4.88;;;1.70;;
50789;SDS011;37287;47.554;7.844;2023-12-20T16:52:52;2.05;;;1.55;;
50789;SDS011;37287;47.554;7.844;2023-12-20T16:55:19;2.42;;;1.38;;
50789;SDS011;37287;47.554;7.844;2023-12-20T16:57:46;2.65;;;1.40;;